GLD weather

Renner Field-Goodland Municipal Airport
Goodland, Kansas, United States

Public forecast

Using degrees Fahrenheit for public forecast. Weather courtesy of forecast.io.

METAR (pilot weather report)

Retrieved 2019/09/19 02:53 UTC (12 minutes ago):

KGLD 190253Z AUTO 00000KT 10SM CLR 16/12 A3002 RMK AO2 SLP136 T01610122 53009

TAF (pilot weather forecast)

Forecast is more than 12 hours old.

Retrieved 2019/09/18 00:22 UTC (1 day ago):

TAF KGLD 182320Z 1900/1924 08008KT P6SM SKC FM190900 11007KT P6SM SCT030 FM191300 16005KT P6SM FEW080 SCT200 FM191900 18015G25KT P6SM SCT150